createdAt,value
2023-03-13T00:04:11.328Z,28.77
2023-03-13T00:10:13.109Z,27.17
2023-03-13T00:16:16.976Z,27.00
2023-03-13T00:22:19.238Z,26.02
2023-03-13T00:28:20.975Z,26.92
2023-03-13T00:34:22.824Z,27.23
2023-03-13T00:40:25.036Z,29.15
2023-03-13T00:46:29.515Z,28.63
2023-03-13T00:52:31.378Z,35.10
2023-03-13T00:58:38.552Z,29.27
2023-03-13T01:04:40.314Z,32.87
2023-03-13T01:10:42.275Z,32.35
2023-03-13T01:16:44.144Z,29.17
2023-03-13T01:22:45.847Z,29.58
2023-03-13T01:28:47.954Z,22.58
2023-03-13T01:34:52.012Z,26.00
2023-03-13T01:40:53.756Z,28.42
2023-03-13T01:47:26.252Z,34.53
2023-03-13T01:53:52.660Z,27.30
2023-03-13T02:00:02.090Z,29.63
2023-03-13T02:06:06.519Z,30.35
2023-03-13T02:12:14.620Z,26.27
2023-03-13T02:18:16.760Z,28.10
2023-03-13T02:24:29.592Z,24.27
2023-03-13T02:30:32.179Z,25.60
2023-03-13T02:36:33.972Z,26.08
2023-03-13T02:42:39.018Z,33.38
2023-03-13T02:48:52.652Z,25.88
2023-03-13T02:55:04.617Z,28.42
2023-03-13T03:01:08.089Z,30.70
2023-03-13T03:07:12.960Z,24.65
2023-03-13T03:13:15.085Z,24.58
2023-03-13T03:19:17.570Z,35.33
2023-03-13T03:25:19.369Z,30.52
2023-03-13T03:31:22.570Z,26.35
2023-03-13T03:37:25.019Z,26.02
2023-03-13T03:43:27.649Z,29.55
2023-03-13T03:49:33.076Z,26.38
2023-03-13T03:55:36.310Z,32.47
2023-03-13T04:01:38.666Z,28.35
2023-03-13T04:07:41.062Z,25.75
2023-03-13T04:13:43.082Z,21.30
2023-03-13T04:19:45.400Z,30.38
2023-03-13T04:25:51.783Z,28.75
2023-03-13T04:31:53.703Z,27.42
2023-03-13T04:38:07.490Z,28.80
2023-03-13T04:44:15.440Z,32.13
2023-03-13T04:50:49.759Z,33.85
2023-03-13T04:57:10.033Z,38.60
2023-03-13T05:03:34.649Z,27.73
2023-03-13T05:09:50.454Z,32.03
2023-03-13T05:16:10.893Z,35.05
2023-03-13T05:22:31.278Z,29.27
2023-03-13T05:28:53.319Z,21.70
2023-03-13T05:35:11.935Z,21.73
2023-03-13T05:41:32.292Z,21.48
2023-03-13T05:47:55.744Z,25.25
2023-03-13T05:54:33.704Z,18.63
2023-03-13T06:00:56.168Z,21.65
2023-03-13T06:07:15.606Z,15.02
2023-03-13T06:13:20.514Z,11.35
2023-03-13T06:19:25.992Z,14.73
2023-03-13T06:25:27.711Z,15.18
2023-03-13T06:31:29.587Z,15.40
2023-03-13T06:37:31.407Z,15.73
2023-03-13T06:43:33.976Z,17.38
2023-03-13T06:49:36.356Z,13.43
2023-03-13T06:55:38.103Z,14.15
2023-03-13T07:01:39.959Z,13.70
2023-03-13T07:07:42.526Z,12.68
2023-03-13T07:13:44.354Z,8.68
2023-03-13T07:19:46.117Z,12.52
2023-03-13T07:26:05.848Z,14.07
2023-03-13T07:32:07.923Z,9.02
2023-03-13T07:38:09.784Z,9.60
2023-03-13T07:44:11.940Z,6.82
2023-03-13T07:50:13.768Z,12.05
2023-03-13T07:56:18.768Z,7.75
2023-03-13T08:02:20.515Z,8.70
2023-03-13T08:08:22.283Z,6.03
2023-03-13T08:14:24.032Z,10.13
2023-03-13T08:20:28.900Z,7.35
2023-03-13T08:26:31.612Z,10.55
2023-03-13T08:32:34.269Z,9.80
2023-03-13T08:38:36.102Z,10.35
2023-03-13T08:44:37.920Z,7.38
2023-03-13T08:50:39.622Z,6.22
2023-03-13T08:56:43.526Z,5.35
2023-03-13T09:02:45.390Z,6.35
2023-03-13T09:08:47.170Z,5.30
2023-03-13T09:14:48.877Z,4.85
2023-03-13T09:20:51.281Z,5.13
2023-03-13T09:27:00.959Z,5.03
2023-03-13T09:33:03.524Z,3.63
2023-03-13T09:39:05.293Z,4.53
2023-03-13T09:45:12.895Z,4.63
2023-03-13T09:51:33.104Z,3.17
2023-03-13T09:57:57.166Z,4.65
2023-03-13T10:04:15.494Z,4.93
2023-03-13T10:10:34.039Z,3.15
2023-03-13T10:16:41.341Z,5.07
2023-03-13T10:22:49.007Z,2.90
2023-03-13T10:28:54.140Z,3.67
2023-03-13T10:35:00.905Z,5.18
2023-03-13T10:41:19.499Z,3.95
2023-03-13T10:47:21.198Z,4.82
2023-03-13T10:53:29.301Z,3.80
2023-03-13T10:59:31.134Z,4.43
2023-03-13T11:05:38.840Z,4.53
2023-03-13T11:11:50.042Z,7.22
2023-03-13T11:18:16.551Z,4.13
2023-03-13T11:24:34.470Z,7.68
2023-03-13T11:30:54.966Z,5.38
2023-03-13T11:37:11.503Z,4.65
2023-03-13T11:43:26.124Z,4.45
2023-03-13T11:49:59.940Z,4.00
2023-03-13T11:56:21.918Z,4.43
2023-03-13T12:02:30.191Z,4.10
2023-03-13T12:08:46.649Z,5.68
2023-03-13T12:14:53.840Z,5.78
2023-03-13T12:21:02.993Z,6.03
2023-03-13T12:27:18.357Z,4.32
2023-03-13T12:33:26.432Z,6.03
2023-03-13T12:40:09.008Z,5.20
2023-03-13T12:46:37.751Z,3.45
2023-03-13T12:53:20.852Z,5.40
2023-03-13T12:59:28.192Z,5.88
2023-03-13T13:05:29.957Z,2.90
2023-03-13T13:11:37.301Z,5.57
2023-03-13T13:17:44.850Z,4.25
2023-03-13T13:23:50.309Z,2.85
2023-03-13T13:29:55.898Z,3.58
2023-03-13T13:36:09.975Z,5.20
2023-03-13T13:42:32.831Z,3.03
2023-03-13T13:48:43.030Z,5.95
2023-03-13T13:54:45.468Z,4.03
2023-03-13T14:00:58.131Z,3.47
2023-03-13T14:07:03.490Z,2.70
2023-03-13T14:13:17.644Z,2.78
2023-03-13T14:19:41.141Z,4.55
2023-03-13T14:25:42.904Z,5.70
2023-03-13T14:31:52.835Z,3.55
2023-03-13T14:38:02.593Z,2.60
2023-03-13T14:44:17.681Z,2.70
2023-03-13T14:50:24.812Z,1.58
2023-03-13T14:56:38.754Z,1.67
2023-03-13T15:02:42.265Z,3.00
2023-03-13T15:08:46.747Z,2.17
2023-03-13T15:14:51.795Z,3.00
2023-03-13T15:20:59.354Z,2.78
2023-03-13T15:27:01.080Z,1.33
2023-03-13T15:33:02.839Z,2.05
2023-03-13T15:39:06.584Z,4.20
2023-03-13T15:45:08.747Z,2.85
2023-03-13T15:51:14.230Z,2.53
2023-03-13T15:57:19.846Z,3.20
2023-03-13T16:03:27.495Z,2.08
2023-03-13T16:09:29.197Z,2.67
2023-03-13T16:15:30.913Z,2.78
2023-03-13T16:21:34.637Z,2.35
2023-03-13T16:27:36.871Z,2.35
2023-03-13T16:33:38.548Z,5.13
2023-03-13T16:39:43.664Z,3.72
2023-03-13T16:45:46.706Z,6.55
2023-03-13T16:51:48.472Z,4.65
2023-03-13T16:57:50.182Z,5.43
2023-03-13T17:03:52.721Z,3.85
2023-03-13T17:09:54.788Z,3.45
2023-03-13T17:15:56.807Z,2.28
2023-03-13T17:21:58.911Z,4.68
2023-03-13T17:28:00.627Z,3.90
2023-03-13T17:34:03.459Z,6.22
2023-03-13T17:40:24.578Z,6.60
2023-03-13T17:46:46.518Z,4.45
2023-03-13T17:52:51.006Z,4.95
2023-03-13T17:58:56.320Z,4.63
2023-03-13T18:04:58.058Z,5.95
2023-03-13T18:10:59.829Z,3.25
2023-03-13T18:17:01.646Z,9.15
2023-03-13T18:23:03.430Z,5.88
2023-03-13T18:29:25.847Z,5.10
2023-03-13T18:35:27.996Z,4.47
2023-03-13T18:41:29.787Z,4.18
2023-03-13T18:47:31.541Z,4.78
2023-03-13T18:53:33.280Z,4.72
2023-03-13T18:59:35.546Z,6.72
2023-03-13T19:05:37.271Z,3.10
2023-03-13T19:11:39.546Z,5.90
2023-03-13T19:17:42.103Z,5.20
2023-03-13T19:23:44.368Z,4.32
2023-03-13T19:29:46.283Z,4.90
2023-03-13T19:35:48.032Z,3.92
2023-03-13T19:41:50.876Z,4.22
2023-03-13T19:47:52.607Z,4.93
2023-03-13T19:53:55.400Z,3.65
2023-03-13T19:59:57.607Z,4.70
2023-03-13T20:05:59.373Z,3.13
2023-03-13T20:12:02.543Z,3.88
2023-03-13T20:18:04.571Z,4.95
2023-03-13T20:24:07.813Z,2.85
2023-03-13T20:30:10.375Z,6.95
2023-03-13T20:36:15.074Z,4.28
2023-03-13T20:42:16.841Z,3.55
2023-03-13T20:48:19.349Z,2.17
2023-03-13T20:54:21.816Z,4.25
2023-03-13T21:00:24.390Z,3.67
2023-03-13T21:06:27.307Z,4.03
2023-03-13T21:12:29.193Z,4.15
2023-03-13T21:18:31.073Z,4.95
2023-03-13T21:24:32.907Z,4.68
2023-03-13T21:30:34.772Z,5.10
2023-03-13T21:36:36.787Z,4.15
2023-03-13T21:42:38.713Z,3.42
2023-03-13T21:48:42.599Z,4.78
2023-03-13T21:54:44.591Z,3.67
2023-03-13T22:00:46.364Z,3.05
2023-03-13T22:06:50.846Z,2.63
2023-03-13T22:12:52.559Z,4.65
2023-03-13T22:18:54.417Z,3.88
2023-03-13T22:24:56.204Z,3.88
2023-03-13T22:31:02.123Z,5.82
2023-03-13T22:37:03.891Z,4.03
2023-03-13T22:43:05.665Z,5.80
2023-03-13T22:49:07.539Z,3.08
2023-03-13T22:55:09.694Z,3.42
2023-03-13T23:01:14.986Z,5.20
2023-03-13T23:07:17.332Z,3.83
2023-03-13T23:13:19.062Z,2.42
2023-03-13T23:19:22.780Z,3.40
2023-03-13T23:25:24.621Z,4.13
2023-03-13T23:31:26.389Z,5.40
2023-03-13T23:37:28.165Z,7.68
2023-03-13T23:43:29.932Z,9.68
2023-03-13T23:49:32.104Z,3.88
2023-03-13T23:55:33.966Z,2.88
